KAYS/AYS METAR and TAF weather

Enter ICAO airport designator
Station Type Date Time Source
KAYS METAR 2018/10/21 03:55 UTC NOAA

KAYS 210355Z AUTO 33006KT 10SM CLR 22/20 A3000 RMK AO2 T02150198


Station Type Date Time Source
KAYS Decoded METAR 2018/10/21 03:55 UTC NOAA

Waycross / Ware County, Ga, GA, United States (KAYS) 31-15N 082-24W 46M
Oct 20, 2018 - 11:55 PM EDT / 2018.10.21 0355 UTC
Wind: from the NNW (330 degrees) at 7 MPH (6 KT):0
Visibility: 10 mile(s):0
Sky conditions: clear
Temperature: 70.7 F (21.5 C)
Dew Point: 67.6 F (19.8 C)
Relative Humidity: 90%
Pressure (altimeter): 30 in. Hg (1015 hPa)
ob: KAYS 210355Z AUTO 33006KT 10SM CLR 22/20 A3000 RMK AO2 T02150198
cycle: 4

Station Type Date Time Source
KAYS TAF UTC NOAA

Error!


Example: see airport list